sensor_id;sensor_type;location;lat;lon;timestamp;P1;durP1;ratioP1;P2;durP2;ratioP2
57573;SDS011;43409;48.858;21.906;2022-07-29T00:02:25;2.30;;;2.20;;
57573;SDS011;43409;48.858;21.906;2022-07-29T00:04:51;2.67;;;2.00;;
57573;SDS011;43409;48.858;21.906;2022-07-29T00:07:16;4.38;;;2.30;;
57573;SDS011;43409;48.858;21.906;2022-07-29T00:09:42;4.85;;;2.40;;
57573;SDS011;43409;48.858;21.906;2022-07-29T00:12:07;3.25;;;2.30;;
57573;SDS011;43409;48.858;21.906;2022-07-29T00:14:33;2.80;;;2.60;;
57573;SDS011;43409;48.858;21.906;2022-07-29T00:16:58;2.65;;;2.45;;
57573;SDS011;43409;48.858;21.906;2022-07-29T00:19:24;3.90;;;2.85;;
57573;SDS011;43409;48.858;21.906;2022-07-29T00:21:49;2.60;;;2.40;;
57573;SDS011;43409;48.858;21.906;2022-07-29T00:24:14;3.55;;;3.22;;
57573;SDS011;43409;48.858;21.906;2022-07-29T00:26:40;3.10;;;2.90;;
57573;SDS011;43409;48.858;21.906;2022-07-29T00:29:05;3.15;;;2.85;;
57573;SDS011;43409;48.858;21.906;2022-07-29T00:31:30;4.63;;;2.85;;
57573;SDS011;43409;48.858;21.906;2022-07-29T00:33:56;4.32;;;2.60;;
57573;SDS011;43409;48.858;21.906;2022-07-29T00:36:21;2.60;;;2.40;;
57573;SDS011;43409;48.858;21.906;2022-07-29T00:38:47;6.15;;;2.70;;
57573;SDS011;43409;48.858;21.906;2022-07-29T00:41:14;3.50;;;1.92;;
57573;SDS011;43409;48.858;21.906;2022-07-29T00:43:40;2.80;;;2.60;;
57573;SDS011;43409;48.858;21.906;2022-07-29T00:46:05;2.60;;;2.40;;
57573;SDS011;43409;48.858;21.906;2022-07-29T00:48:31;3.45;;;2.60;;
57573;SDS011;43409;48.858;21.906;2022-07-29T00:50:57;3.22;;;2.85;;
57573;SDS011;43409;48.858;21.906;2022-07-29T00:53:24;3.30;;;3.00;;
57573;SDS011;43409;48.858;21.906;2022-07-29T00:55:50;3.20;;;2.83;;
57573;SDS011;43409;48.858;21.906;2022-07-29T00:58:16;3.58;;;2.70;;
57573;SDS011;43409;48.858;21.906;2022-07-29T01:00:41;6.22;;;2.70;;
57573;SDS011;43409;48.858;21.906;2022-07-29T01:03:07;3.30;;;2.70;;
57573;SDS011;43409;48.858;21.906;2022-07-29T01:05:33;9.23;;;2.80;;
57573;SDS011;43409;48.858;21.906;2022-07-29T01:08:00;3.15;;;2.95;;
57573;SDS011;43409;48.858;21.906;2022-07-29T01:10:27;3.03;;;2.75;;
57573;SDS011;43409;48.858;21.906;2022-07-29T01:12:55;5.32;;;3.08;;
57573;SDS011;43409;48.858;21.906;2022-07-29T01:15:24;2.65;;;2.42;;
57573;SDS011;43409;48.858;21.906;2022-07-29T01:31:19;3.17;;;2.40;;
57573;SDS011;43409;48.858;21.906;2022-07-29T01:33:49;2.97;;;2.63;;
57573;SDS011;43409;48.858;21.906;2022-07-29T01:36:23;4.07;;;2.50;;
57573;SDS011;43409;48.858;21.906;2022-07-29T01:38:59;3.47;;;2.33;;
57573;SDS011;43409;48.858;21.906;2022-07-29T01:41:32;2.78;;;2.55;;
57573;SDS011;43409;48.858;21.906;2022-07-29T01:44:13;3.22;;;2.58;;
57573;SDS011;43409;48.858;21.906;2022-07-29T01:46:52;3.10;;;2.70;;
57573;SDS011;43409;48.858;21.906;2022-07-29T01:49:22;3.05;;;2.60;;
57573;SDS011;43409;48.858;21.906;2022-07-29T01:51:54;2.80;;;2.60;;
57573;SDS011;43409;48.858;21.906;2022-07-29T01:54:41;2.75;;;2.55;;
57573;SDS011;43409;48.858;21.906;2022-07-29T01:57:14;3.17;;;2.63;;
57573;SDS011;43409;48.858;21.906;2022-07-29T01:59:45;6.80;;;2.88;;
57573;SDS011;43409;48.858;21.906;2022-07-29T02:02:12;3.03;;;2.83;;
57573;SDS011;43409;48.858;21.906;2022-07-29T02:04:43;2.60;;;2.35;;
57573;SDS011;43409;48.858;21.906;2022-07-29T02:07:13;3.20;;;2.80;;
57573;SDS011;43409;48.858;21.906;2022-07-29T02:09:43;2.78;;;2.58;;
57573;SDS011;43409;48.858;21.906;2022-07-29T02:12:10;2.95;;;2.75;;
57573;SDS011;43409;48.858;21.906;2022-07-29T02:14:39;2.97;;;2.60;;
57573;SDS011;43409;48.858;21.906;2022-07-29T02:17:08;3.75;;;2.42;;
57573;SDS011;43409;48.858;21.906;2022-07-29T02:19:37;3.30;;;2.92;;
57573;SDS011;43409;48.858;21.906;2022-07-29T02:22:04;3.20;;;2.55;;
57573;SDS011;43409;48.858;21.906;2022-07-29T02:24:32;3.45;;;2.60;;
57573;SDS011;43409;48.858;21.906;2022-07-29T02:27:00;5.38;;;2.80;;
57573;SDS011;43409;48.858;21.906;2022-07-29T02:29:28;3.50;;;2.50;;
57573;SDS011;43409;48.858;21.906;2022-07-29T02:31:56;5.18;;;3.00;;
57573;SDS011;43409;48.858;21.906;2022-07-29T02:34:23;3.58;;;2.92;;
57573;SDS011;43409;48.858;21.906;2022-07-29T02:36:50;4.35;;;2.40;;
57573;SDS011;43409;48.858;21.906;2022-07-29T02:39:17;4.85;;;2.30;;
57573;SDS011;43409;48.858;21.906;2022-07-29T02:41:50;3.25;;;2.33;;
57573;SDS011;43409;48.858;21.906;2022-07-29T02:44:18;3.42;;;2.72;;
57573;SDS011;43409;48.858;21.906;2022-07-29T02:46:50;2.90;;;2.70;;
57573;SDS011;43409;48.858;21.906;2022-07-29T02:52:27;2.55;;;2.35;;
57573;SDS011;43409;48.858;21.906;2022-07-29T02:58:02;2.60;;;2.40;;
57573;SDS011;43409;48.858;21.906;2022-07-29T03:00:31;3.75;;;2.63;;
57573;SDS011;43409;48.858;21.906;2022-07-29T03:03:02;2.60;;;2.40;;
57573;SDS011;43409;48.858;21.906;2022-07-29T03:05:32;3.85;;;2.13;;
57573;SDS011;43409;48.858;21.906;2022-07-29T03:08:00;3.22;;;2.45;;
57573;SDS011;43409;48.858;21.906;2022-07-29T03:10:28;3.90;;;2.35;;
57573;SDS011;43409;48.858;21.906;2022-07-29T03:12:54;2.70;;;2.50;;
57573;SDS011;43409;48.858;21.906;2022-07-29T03:15:21;2.55;;;2.35;;
57573;SDS011;43409;48.858;21.906;2022-07-29T03:17:47;4.45;;;2.42;;
57573;SDS011;43409;48.858;21.906;2022-07-29T03:20:14;2.70;;;2.33;;
57573;SDS011;43409;48.858;21.906;2022-07-29T03:22:40;3.42;;;2.55;;
57573;SDS011;43409;48.858;21.906;2022-07-29T03:25:12;5.53;;;2.10;;
57573;SDS011;43409;48.858;21.906;2022-07-29T03:27:39;2.72;;;2.53;;
57573;SDS011;43409;48.858;21.906;2022-07-29T03:30:06;6.35;;;2.80;;
57573;SDS011;43409;48.858;21.906;2022-07-29T03:32:32;3.85;;;2.45;;
57573;SDS011;43409;48.858;21.906;2022-07-29T03:34:57;3.45;;;2.25;;
57573;SDS011;43409;48.858;21.906;2022-07-29T03:37:23;4.82;;;2.33;;
57573;SDS011;43409;48.858;21.906;2022-07-29T03:39:48;2.47;;;2.22;;
57573;SDS011;43409;48.858;21.906;2022-07-29T03:42:16;3.47;;;2.78;;
57573;SDS011;43409;48.858;21.906;2022-07-29T03:44:45;2.80;;;2.50;;
57573;SDS011;43409;48.858;21.906;2022-07-29T03:47:14;2.33;;;2.13;;
57573;SDS011;43409;48.858;21.906;2022-07-29T03:49:42;2.88;;;2.40;;
57573;SDS011;43409;48.858;21.906;2022-07-29T03:52:13;3.70;;;2.20;;
57573;SDS011;43409;48.858;21.906;2022-07-29T03:54:38;6.32;;;2.40;;
57573;SDS011;43409;48.858;21.906;2022-07-29T03:57:05;2.63;;;2.42;;
57573;SDS011;43409;48.858;21.906;2022-07-29T03:59:32;5.32;;;2.40;;
57573;SDS011;43409;48.858;21.906;2022-07-29T04:02:03;8.20;;;2.47;;
57573;SDS011;43409;48.858;21.906;2022-07-29T04:04:32;2.58;;;2.25;;
57573;SDS011;43409;48.858;21.906;2022-07-29T04:06:59;2.80;;;2.28;;
57573;SDS011;43409;48.858;21.906;2022-07-29T04:09:25;9.35;;;3.03;;
57573;SDS011;43409;48.858;21.906;2022-07-29T04:11:50;3.22;;;2.38;;
57573;SDS011;43409;48.858;21.906;2022-07-29T04:14:16;3.50;;;2.60;;
57573;SDS011;43409;48.858;21.906;2022-07-29T04:16:41;2.75;;;2.50;;
57573;SDS011;43409;48.858;21.906;2022-07-29T04:19:07;7.65;;;2.47;;
57573;SDS011;43409;48.858;21.906;2022-07-29T04:24:10;2.47;;;2.28;;
57573;SDS011;43409;48.858;21.906;2022-07-29T04:26:35;6.88;;;2.75;;
57573;SDS011;43409;48.858;21.906;2022-07-29T04:29:00;2.50;;;2.30;;
57573;SDS011;43409;48.858;21.906;2022-07-29T04:31:26;3.60;;;2.40;;
57573;SDS011;43409;48.858;21.906;2022-07-29T04:33:51;3.10;;;2.38;;
57573;SDS011;43409;48.858;21.906;2022-07-29T04:36:17;2.75;;;2.42;;
57573;SDS011;43409;48.858;21.906;2022-07-29T04:38:42;6.22;;;2.30;;
57573;SDS011;43409;48.858;21.906;2022-07-29T04:41:08;4.78;;;2.20;;
57573;SDS011;43409;48.858;21.906;2022-07-29T04:43:34;2.50;;;2.22;;
57573;SDS011;43409;48.858;21.906;2022-07-29T04:46:00;4.38;;;2.67;;
57573;SDS011;43409;48.858;21.906;2022-07-29T04:48:26;2.45;;;2.25;;
57573;SDS011;43409;48.858;21.906;2022-07-29T04:50:52;4.80;;;2.10;;
57573;SDS011;43409;48.858;21.906;2022-07-29T04:53:17;6.13;;;2.50;;
57573;SDS011;43409;48.858;21.906;2022-07-29T04:55:43;2.85;;;2.13;;
57573;SDS011;43409;48.858;21.906;2022-07-29T04:58:08;2.50;;;2.08;;
57573;SDS011;43409;48.858;21.906;2022-07-29T05:00:34;2.58;;;2.42;;
57573;SDS011;43409;48.858;21.906;2022-07-29T05:02:59;4.55;;;1.98;;
57573;SDS011;43409;48.858;21.906;2022-07-29T05:05:25;11.68;;;2.95;;
57573;SDS011;43409;48.858;21.906;2022-07-29T05:07:50;5.60;;;2.53;;
57573;SDS011;43409;48.858;21.906;2022-07-29T05:10:15;11.48;;;2.58;;
57573;SDS011;43409;48.858;21.906;2022-07-29T05:12:41;2.65;;;2.45;;
57573;SDS011;43409;48.858;21.906;2022-07-29T05:15:06;2.67;;;2.38;;
57573;SDS011;43409;48.858;21.906;2022-07-29T05:17:32;5.55;;;2.60;;
57573;SDS011;43409;48.858;21.906;2022-07-29T05:19:58;6.13;;;2.55;;
57573;SDS011;43409;48.858;21.906;2022-07-29T05:22:23;6.25;;;2.42;;
57573;SDS011;43409;48.858;21.906;2022-07-29T05:24:49;6.78;;;2.75;;
57573;SDS011;43409;48.858;21.906;2022-07-29T05:27:14;5.15;;;2.95;;
57573;SDS011;43409;48.858;21.906;2022-07-29T05:29:40;6.00;;;2.45;;
57573;SDS011;43409;48.858;21.906;2022-07-29T05:32:05;4.00;;;2.70;;
57573;SDS011;43409;48.858;21.906;2022-07-29T05:34:31;4.63;;;2.88;;
57573;SDS011;43409;48.858;21.906;2022-07-29T05:36:56;8.40;;;3.17;;
57573;SDS011;43409;48.858;21.906;2022-07-29T05:39:23;6.35;;;2.97;;
57573;SDS011;43409;48.858;21.906;2022-07-29T05:41:48;6.07;;;2.90;;
57573;SDS011;43409;48.858;21.906;2022-07-29T05:44:14;10.93;;;2.80;;
57573;SDS011;43409;48.858;21.906;2022-07-29T05:46:39;14.35;;;2.85;;
57573;SDS011;43409;48.858;21.906;2022-07-29T05:49:05;14.57;;;3.15;;
57573;SDS011;43409;48.858;21.906;2022-07-29T05:51:31;3.78;;;2.97;;
57573;SDS011;43409;48.858;21.906;2022-07-29T05:53:57;4.78;;;2.70;;
57573;SDS011;43409;48.858;21.906;2022-07-29T05:56:23;3.20;;;2.88;;
57573;SDS011;43409;48.858;21.906;2022-07-29T05:58:49;4.70;;;2.90;;
57573;SDS011;43409;48.858;21.906;2022-07-29T06:01:14;4.20;;;3.25;;
57573;SDS011;43409;48.858;21.906;2022-07-29T06:03:39;3.58;;;3.10;;
57573;SDS011;43409;48.858;21.906;2022-07-29T06:06:06;3.78;;;3.00;;
57573;SDS011;43409;48.858;21.906;2022-07-29T06:08:32;4.30;;;2.80;;
57573;SDS011;43409;48.858;21.906;2022-07-29T06:10:59;3.75;;;2.90;;
57573;SDS011;43409;48.858;21.906;2022-07-29T06:13:25;4.63;;;2.65;;
57573;SDS011;43409;48.858;21.906;2022-07-29T06:15:50;6.22;;;3.10;;
57573;SDS011;43409;48.858;21.906;2022-07-29T06:18:15;8.02;;;3.20;;
57573;SDS011;43409;48.858;21.906;2022-07-29T06:20:41;3.85;;;2.85;;
57573;SDS011;43409;48.858;21.906;2022-07-29T06:23:06;3.80;;;2.55;;
57573;SDS011;43409;48.858;21.906;2022-07-29T06:25:32;5.15;;;2.88;;
57573;SDS011;43409;48.858;21.906;2022-07-29T06:27:59;3.40;;;2.58;;
57573;SDS011;43409;48.858;21.906;2022-07-29T06:30:25;7.20;;;2.83;;
57573;SDS011;43409;48.858;21.906;2022-07-29T06:32:51;3.33;;;2.92;;
57573;SDS011;43409;48.858;21.906;2022-07-29T06:35:17;4.85;;;2.92;;
57573;SDS011;43409;48.858;21.906;2022-07-29T06:37:42;8.90;;;2.70;;
57573;SDS011;43409;48.858;21.906;2022-07-29T06:40:08;3.00;;;2.67;;
57573;SDS011;43409;48.858;21.906;2022-07-29T06:42:52;10.43;;;3.58;;
57573;SDS011;43409;48.858;21.906;2022-07-29T06:45:17;2.95;;;2.75;;
57573;SDS011;43409;48.858;21.906;2022-07-29T06:47:43;4.38;;;3.38;;
57573;SDS011;43409;48.858;21.906;2022-07-29T06:50:08;12.35;;;4.00;;
57573;SDS011;43409;48.858;21.906;2022-07-29T06:52:37;5.88;;;3.38;;
57573;SDS011;43409;48.858;21.906;2022-07-29T06:55:02;5.63;;;3.03;;
57573;SDS011;43409;48.858;21.906;2022-07-29T06:57:28;3.72;;;3.40;;
57573;SDS011;43409;48.858;21.906;2022-07-29T06:59:55;9.95;;;3.45;;
57573;SDS011;43409;48.858;21.906;2022-07-29T07:02:21;7.38;;;3.25;;
57573;SDS011;43409;48.858;21.906;2022-07-29T07:04:47;4.25;;;3.47;;
57573;SDS011;43409;48.858;21.906;2022-07-29T07:07:12;6.45;;;3.47;;
57573;SDS011;43409;48.858;21.906;2022-07-29T07:09:37;18.55;;;3.50;;
57573;SDS011;43409;48.858;21.906;2022-07-29T07:12:03;10.40;;;3.65;;
57573;SDS011;43409;48.858;21.906;2022-07-29T07:14:28;11.50;;;3.33;;
57573;SDS011;43409;48.858;21.906;2022-07-29T07:16:54;6.60;;;3.08;;
57573;SDS011;43409;48.858;21.906;2022-07-29T07:19:19;7.57;;;3.35;;
57573;SDS011;43409;48.858;21.906;2022-07-29T07:21:44;3.10;;;2.85;;
57573;SDS011;43409;48.858;21.906;2022-07-29T07:24:10;2.70;;;2.50;;
57573;SDS011;43409;48.858;21.906;2022-07-29T07:26:35;4.65;;;3.00;;
57573;SDS011;43409;48.858;21.906;2022-07-29T07:29:01;3.70;;;2.50;;
57573;SDS011;43409;48.858;21.906;2022-07-29T07:31:26;3.85;;;2.67;;
57573;SDS011;43409;48.858;21.906;2022-07-29T07:33:52;4.57;;;2.80;;
57573;SDS011;43409;48.858;21.906;2022-07-29T07:36:18;4.45;;;2.30;;
57573;SDS011;43409;48.858;21.906;2022-07-29T07:38:44;6.82;;;2.38;;
57573;SDS011;43409;48.858;21.906;2022-07-29T07:41:09;3.63;;;2.20;;
57573;SDS011;43409;48.858;21.906;2022-07-29T07:43:35;5.75;;;2.80;;
57573;SDS011;43409;48.858;21.906;2022-07-29T07:46:00;7.03;;;2.72;;
57573;SDS011;43409;48.858;21.906;2022-07-29T07:48:25;7.20;;;2.58;;
57573;SDS011;43409;48.858;21.906;2022-07-29T07:50:51;4.97;;;2.53;;
57573;SDS011;43409;48.858;21.906;2022-07-29T07:53:16;7.50;;;2.90;;
57573;SDS011;43409;48.858;21.906;2022-07-29T07:55:42;68.55;;;6.53;;
57573;SDS011;43409;48.858;21.906;2022-07-29T07:58:08;22.83;;;4.55;;
57573;SDS011;43409;48.858;21.906;2022-07-29T08:00:34;25.20;;;4.05;;
57573;SDS011;43409;48.858;21.906;2022-07-29T08:03:00;4.07;;;2.90;;
57573;SDS011;43409;48.858;21.906;2022-07-29T08:05:25;6.60;;;2.60;;
57573;SDS011;43409;48.858;21.906;2022-07-29T08:07:52;5.20;;;2.90;;
57573;SDS011;43409;48.858;21.906;2022-07-29T08:10:18;7.70;;;2.60;;
57573;SDS011;43409;48.858;21.906;2022-07-29T08:13:03;8.98;;;3.10;;
57573;SDS011;43409;48.858;21.906;2022-07-29T08:15:30;9.48;;;3.08;;
57573;SDS011;43409;48.858;21.906;2022-07-29T08:17:55;5.80;;;2.65;;
57573;SDS011;43409;48.858;21.906;2022-07-29T08:20:20;12.05;;;2.80;;
57573;SDS011;43409;48.858;21.906;2022-07-29T08:22:46;6.80;;;2.70;;
57573;SDS011;43409;48.858;21.906;2022-07-29T08:25:11;8.75;;;3.47;;
57573;SDS011;43409;48.858;21.906;2022-07-29T08:27:37;10.80;;;2.63;;
57573;SDS011;43409;48.858;21.906;2022-07-29T08:30:02;10.02;;;2.88;;
57573;SDS011;43409;48.858;21.906;2022-07-29T08:32:28;7.63;;;3.00;;
57573;SDS011;43409;48.858;21.906;2022-07-29T08:34:54;12.70;;;2.78;;
57573;SDS011;43409;48.858;21.906;2022-07-29T08:37:21;6.22;;;2.70;;
57573;SDS011;43409;48.858;21.906;2022-07-29T08:39:47;7.13;;;2.60;;
57573;SDS011;43409;48.858;21.906;2022-07-29T08:42:12;3.35;;;2.60;;
57573;SDS011;43409;48.858;21.906;2022-07-29T08:44:38;4.90;;;2.42;;
57573;SDS011;43409;48.858;21.906;2022-07-29T08:47:04;4.25;;;2.83;;
57573;SDS011;43409;48.858;21.906;2022-07-29T08:49:30;3.25;;;2.35;;
57573;SDS011;43409;48.858;21.906;2022-07-29T08:51:58;5.05;;;2.58;;
57573;SDS011;43409;48.858;21.906;2022-07-29T08:54:25;5.18;;;2.67;;
57573;SDS011;43409;48.858;21.906;2022-07-29T08:56:51;9.80;;;2.60;;
57573;SDS011;43409;48.858;21.906;2022-07-29T08:59:20;6.40;;;2.63;;
57573;SDS011;43409;48.858;21.906;2022-07-29T09:01:48;4.20;;;2.80;;
57573;SDS011;43409;48.858;21.906;2022-07-29T09:04:16;8.13;;;2.72;;
57573;SDS011;43409;48.858;21.906;2022-07-29T09:06:46;5.03;;;2.72;;
57573;SDS011;43409;48.858;21.906;2022-07-29T09:09:14;8.63;;;2.50;;
57573;SDS011;43409;48.858;21.906;2022-07-29T09:11:41;8.30;;;2.90;;
57573;SDS011;43409;48.858;21.906;2022-07-29T09:14:07;3.80;;;2.75;;
57573;SDS011;43409;48.858;21.906;2022-07-29T09:16:53;3.90;;;3.15;;
57573;SDS011;43409;48.858;21.906;2022-07-29T09:19:21;9.70;;;3.05;;
57573;SDS011;43409;48.858;21.906;2022-07-29T09:21:47;6.25;;;2.85;;
57573;SDS011;43409;48.858;21.906;2022-07-29T09:27:24;2.88;;;2.25;;
57573;SDS011;43409;48.858;21.906;2022-07-29T09:30:02;4.43;;;2.53;;
57573;SDS011;43409;48.858;21.906;2022-07-29T09:32:30;3.83;;;2.30;;
57573;SDS011;43409;48.858;21.906;2022-07-29T09:37:41;9.60;;;2.83;;
57573;SDS011;43409;48.858;21.906;2022-07-29T09:40:23;3.00;;;2.50;;
57573;SDS011;43409;48.858;21.906;2022-07-29T09:42:50;6.28;;;2.67;;
57573;SDS011;43409;48.858;21.906;2022-07-29T09:45:26;10.32;;;2.92;;
57573;SDS011;43409;48.858;21.906;2022-07-29T09:47:53;5.45;;;2.90;;
57573;SDS011;43409;48.858;21.906;2022-07-29T09:50:19;10.50;;;3.70;;
57573;SDS011;43409;48.858;21.906;2022-07-29T09:52:52;12.50;;;2.92;;
57573;SDS011;43409;48.858;21.906;2022-07-29T09:55:20;11.32;;;2.72;;
57573;SDS011;43409;48.858;21.906;2022-07-29T09:57:46;4.38;;;2.90;;
57573;SDS011;43409;48.858;21.906;2022-07-29T10:00:13;3.70;;;2.72;;
57573;SDS011;43409;48.858;21.906;2022-07-29T10:02:40;6.20;;;3.08;;
57573;SDS011;43409;48.858;21.906;2022-07-29T10:05:22;3.13;;;2.83;;
57573;SDS011;43409;48.858;21.906;2022-07-29T10:07:50;2.83;;;2.63;;
57573;SDS011;43409;48.858;21.906;2022-07-29T10:10:20;4.03;;;2.70;;
57573;SDS011;43409;48.858;21.906;2022-07-29T10:12:58;6.05;;;3.15;;
57573;SDS011;43409;48.858;21.906;2022-07-29T10:15:26;4.25;;;3.08;;
57573;SDS011;43409;48.858;21.906;2022-07-29T10:17:54;7.18;;;2.72;;
57573;SDS011;43409;48.858;21.906;2022-07-29T10:20:23;5.30;;;2.70;;
57573;SDS011;43409;48.858;21.906;2022-07-29T10:22:49;4.05;;;2.38;;
57573;SDS011;43409;48.858;21.906;2022-07-29T10:25:16;4.45;;;2.40;;
57573;SDS011;43409;48.858;21.906;2022-07-29T10:27:45;7.68;;;2.63;;
57573;SDS011;43409;48.858;21.906;2022-07-29T10:30:13;5.05;;;2.50;;
57573;SDS011;43409;48.858;21.906;2022-07-29T10:33:25;8.20;;;2.80;;
57573;SDS011;43409;48.858;21.906;2022-07-29T10:38:48;2.78;;;2.58;;
57573;SDS011;43409;48.858;21.906;2022-07-29T10:44:21;6.90;;;2.60;;
57573;SDS011;43409;48.858;21.906;2022-07-29T10:46:48;5.22;;;3.20;;
57573;SDS011;43409;48.858;21.906;2022-07-29T10:57:12;5.50;;;2.20;;
57573;SDS011;43409;48.858;21.906;2022-07-29T10:59:38;2.92;;;2.70;;
57573;SDS011;43409;48.858;21.906;2022-07-29T11:07:24;4.50;;;2.33;;
57573;SDS011;43409;48.858;21.906;2022-07-29T11:15:09;8.20;;;2.20;;
57573;SDS011;43409;48.858;21.906;2022-07-29T11:20:36;2.47;;;2.25;;
57573;SDS011;43409;48.858;21.906;2022-07-29T11:23:16;3.35;;;2.20;;
57573;SDS011;43409;48.858;21.906;2022-07-29T11:28:48;7.50;;;2.10;;
57573;SDS011;43409;48.858;21.906;2022-07-29T11:31:14;4.55;;;2.13;;
57573;SDS011;43409;48.858;21.906;2022-07-29T11:33:44;2.83;;;2.08;;
57573;SDS011;43409;48.858;21.906;2022-07-29T11:36:10;2.17;;;1.98;;
57573;SDS011;43409;48.858;21.906;2022-07-29T11:38:37;7.55;;;2.25;;
57573;SDS011;43409;48.858;21.906;2022-07-29T11:41:36;2.33;;;2.17;;
57573;SDS011;43409;48.858;21.906;2022-07-29T11:44:00;4.53;;;2.13;;
57573;SDS011;43409;48.858;21.906;2022-07-29T11:49:23;2.45;;;2.10;;
57573;SDS011;43409;48.858;21.906;2022-07-29T11:51:54;2.45;;;1.95;;
57573;SDS011;43409;48.858;21.906;2022-07-29T11:54:24;17.35;;;2.85;;
57573;SDS011;43409;48.858;21.906;2022-07-29T11:56:52;2.30;;;2.10;;
57573;SDS011;43409;48.858;21.906;2022-07-29T11:59:18;10.93;;;2.58;;
57573;SDS011;43409;48.858;21.906;2022-07-29T12:01:54;12.07;;;2.58;;
57573;SDS011;43409;48.858;21.906;2022-07-29T12:04:24;10.20;;;2.58;;
57573;SDS011;43409;48.858;21.906;2022-07-29T12:06:51;2.97;;;2.30;;
57573;SDS011;43409;48.858;21.906;2022-07-29T12:09:20;12.65;;;2.28;;
57573;SDS011;43409;48.858;21.906;2022-07-29T12:11:46;2.53;;;2.13;;
57573;SDS011;43409;48.858;21.906;2022-07-29T12:14:29;5.38;;;2.25;;
57573;SDS011;43409;48.858;21.906;2022-07-29T12:16:55;5.38;;;2.20;;
57573;SDS011;43409;48.858;21.906;2022-07-29T12:19:21;2.53;;;1.95;;
57573;SDS011;43409;48.858;21.906;2022-07-29T12:21:47;2.20;;;1.95;;
57573;SDS011;43409;48.858;21.906;2022-07-29T12:24:15;5.00;;;2.50;;
57573;SDS011;43409;48.858;21.906;2022-07-29T12:26:51;2.50;;;2.03;;
57573;SDS011;43409;48.858;21.906;2022-07-29T12:29:16;2.22;;;2.00;;
57573;SDS011;43409;48.858;21.906;2022-07-29T12:31:43;3.25;;;2.00;;
57573;SDS011;43409;48.858;21.906;2022-07-29T12:34:09;3.33;;;1.90;;
57573;SDS011;43409;48.858;21.906;2022-07-29T12:36:36;4.60;;;1.98;;
57573;SDS011;43409;48.858;21.906;2022-07-29T12:39:02;3.97;;;1.95;;
57573;SDS011;43409;48.858;21.906;2022-07-29T12:41:28;2.20;;;2.10;;
57573;SDS011;43409;48.858;21.906;2022-07-29T12:43:54;2.45;;;2.00;;
57573;SDS011;43409;48.858;21.906;2022-07-29T12:46:20;2.95;;;1.80;;
57573;SDS011;43409;48.858;21.906;2022-07-29T12:48:49;3.58;;;1.70;;
57573;SDS011;43409;48.858;21.906;2022-07-29T12:51:25;2.45;;;2.10;;
57573;SDS011;43409;48.858;21.906;2022-07-29T12:54:11;2.25;;;2.15;;
57573;SDS011;43409;48.858;21.906;2022-07-29T12:56:40;2.25;;;2.05;;
57573;SDS011;43409;48.858;21.906;2022-07-29T13:01:38;2.00;;;1.88;;
57573;SDS011;43409;48.858;21.906;2022-07-29T13:04:03;4.82;;;2.08;;
57573;SDS011;43409;48.858;21.906;2022-07-29T13:06:44;2.00;;;1.77;;
57573;SDS011;43409;48.858;21.906;2022-07-29T13:09:20;5.25;;;1.80;;
57573;SDS011;43409;48.858;21.906;2022-07-29T13:11:51;4.07;;;2.20;;
57573;SDS011;43409;48.858;21.906;2022-07-29T13:17:00;3.15;;;2.20;;
57573;SDS011;43409;48.858;21.906;2022-07-29T13:19:33;2.10;;;1.90;;
57573;SDS011;43409;48.858;21.906;2022-07-29T13:22:05;3.53;;;2.10;;
57573;SDS011;43409;48.858;21.906;2022-07-29T13:24:30;2.10;;;2.00;;
57573;SDS011;43409;48.858;21.906;2022-07-29T13:26:56;2.00;;;1.90;;
57573;SDS011;43409;48.858;21.906;2022-07-29T13:29:21;2.28;;;2.03;;
57573;SDS011;43409;48.858;21.906;2022-07-29T13:31:46;3.45;;;1.95;;
57573;SDS011;43409;48.858;21.906;2022-07-29T13:34:12;2.50;;;2.00;;
57573;SDS011;43409;48.858;21.906;2022-07-29T13:36:37;2.38;;;2.20;;
57573;SDS011;43409;48.858;21.906;2022-07-29T13:39:03;3.25;;;2.20;;
57573;SDS011;43409;48.858;21.906;2022-07-29T13:41:28;2.20;;;2.00;;
57573;SDS011;43409;48.858;21.906;2022-07-29T13:43:54;2.15;;;1.90;;
57573;SDS011;43409;48.858;21.906;2022-07-29T13:46:19;3.08;;;1.92;;
57573;SDS011;43409;48.858;21.906;2022-07-29T13:48:45;4.00;;;1.85;;
57573;SDS011;43409;48.858;21.906;2022-07-29T13:51:11;6.03;;;2.22;;
57573;SDS011;43409;48.858;21.906;2022-07-29T13:53:36;1.70;;;1.60;;
57573;SDS011;43409;48.858;21.906;2022-07-29T13:56:02;5.38;;;1.70;;
57573;SDS011;43409;48.858;21.906;2022-07-29T13:58:30;1.75;;;1.60;;
57573;SDS011;43409;48.858;21.906;2022-07-29T14:00:56;2.10;;;2.00;;
57573;SDS011;43409;48.858;21.906;2022-07-29T14:03:21;6.25;;;2.10;;
57573;SDS011;43409;48.858;21.906;2022-07-29T14:05:47;3.08;;;2.00;;
57573;SDS011;43409;48.858;21.906;2022-07-29T14:08:13;1.85;;;1.73;;
57573;SDS011;43409;48.858;21.906;2022-07-29T14:10:38;3.97;;;1.95;;
57573;SDS011;43409;48.858;21.906;2022-07-29T14:13:03;4.50;;;2.10;;
57573;SDS011;43409;48.858;21.906;2022-07-29T14:15:29;2.28;;;2.00;;
57573;SDS011;43409;48.858;21.906;2022-07-29T14:17:54;2.53;;;1.90;;
57573;SDS011;43409;48.858;21.906;2022-07-29T14:20:20;7.55;;;2.10;;
57573;SDS011;43409;48.858;21.906;2022-07-29T14:22:45;4.43;;;1.90;;
57573;SDS011;43409;48.858;21.906;2022-07-29T14:25:10;2.28;;;1.58;;
57573;SDS011;43409;48.858;21.906;2022-07-29T14:27:36;2.90;;;2.17;;
57573;SDS011;43409;48.858;21.906;2022-07-29T14:30:01;2.00;;;1.80;;
57573;SDS011;43409;48.858;21.906;2022-07-29T14:32:27;2.50;;;2.00;;
57573;SDS011;43409;48.858;21.906;2022-07-29T14:34:52;2.22;;;2.03;;
57573;SDS011;43409;48.858;21.906;2022-07-29T14:37:18;3.28;;;1.88;;
57573;SDS011;43409;48.858;21.906;2022-07-29T14:39:44;3.58;;;2.10;;
57573;SDS011;43409;48.858;21.906;2022-07-29T14:42:10;1.98;;;1.88;;
57573;SDS011;43409;48.858;21.906;2022-07-29T14:44:35;2.10;;;1.90;;
57573;SDS011;43409;48.858;21.906;2022-07-29T14:47:01;2.05;;;1.90;;
57573;SDS011;43409;48.858;21.906;2022-07-29T14:49:26;7.20;;;2.10;;
57573;SDS011;43409;48.858;21.906;2022-07-29T14:51:52;2.25;;;1.80;;
57573;SDS011;43409;48.858;21.906;2022-07-29T14:54:17;2.03;;;1.90;;
57573;SDS011;43409;48.858;21.906;2022-07-29T14:56:43;1.90;;;1.80;;
57573;SDS011;43409;48.858;21.906;2022-07-29T14:59:08;4.38;;;1.80;;
57573;SDS011;43409;48.858;21.906;2022-07-29T15:01:33;3.58;;;1.90;;
57573;SDS011;43409;48.858;21.906;2022-07-29T15:03:59;2.50;;;2.00;;
57573;SDS011;43409;48.858;21.906;2022-07-29T15:06:25;2.50;;;1.88;;
57573;SDS011;43409;48.858;21.906;2022-07-29T15:08:50;2.80;;;1.92;;
57573;SDS011;43409;48.858;21.906;2022-07-29T15:11:16;3.20;;;1.73;;
57573;SDS011;43409;48.858;21.906;2022-07-29T15:13:41;2.05;;;1.75;;
57573;SDS011;43409;48.858;21.906;2022-07-29T15:16:06;2.00;;;1.80;;
57573;SDS011;43409;48.858;21.906;2022-07-29T15:18:32;2.35;;;2.05;;
57573;SDS011;43409;48.858;21.906;2022-07-29T15:20:57;1.88;;;1.77;;
57573;SDS011;43409;48.858;21.906;2022-07-29T15:23:25;2.55;;;2.00;;
57573;SDS011;43409;48.858;21.906;2022-07-29T15:25:50;3.85;;;1.95;;
57573;SDS011;43409;48.858;21.906;2022-07-29T15:28:16;2.03;;;1.92;;
57573;SDS011;43409;48.858;21.906;2022-07-29T15:30:41;3.03;;;1.83;;
57573;SDS011;43409;48.858;21.906;2022-07-29T15:33:07;2.10;;;2.00;;
57573;SDS011;43409;48.858;21.906;2022-07-29T15:35:36;2.78;;;1.98;;
57573;SDS011;43409;48.858;21.906;2022-07-29T15:38:02;2.28;;;2.17;;
57573;SDS011;43409;48.858;21.906;2022-07-29T15:40:28;2.03;;;1.92;;
57573;SDS011;43409;48.858;21.906;2022-07-29T15:42:53;3.13;;;1.90;;